Time;durP1;ratioP1;P1;durP2;ratioP2;P2;SDS_P1;SDS_P2;PMS_P1;PMS_P2;Temp;Humidity;BMP_temperature;BMP_pressure;BME280_temperature;BME280_humidity;BME280_pressure;Samples;Min_cycle;Max_cycle;Signal;HPM_P1;HPM_P2
2021/10/28 00:17:12;;;;;;;;;;;6.20;99.90;;;5.04;100.00;96181.81;10535614;28;1881;-76
2021/10/28 00:22:16;;;;;;;;;;;6.20;99.90;;;5.02;100.00;96175.88;10528095;28;1881;-76
2021/10/28 00:27:19;;;;;;;;;;;6.10;99.90;;;4.91;100.00;96174.03;10533921;28;1911;-76
2021/10/28 00:32:23;;;;;;;;;;;6.10;99.90;;;5.04;100.00;96179.97;10528475;28;1914;-75
2021/10/28 00:37:26;;;;;;;;;;;6.10;99.90;;;5.01;100.00;96176.94;10534352;28;1822;-75
2021/10/28 00:42:28;;;;;;;;;;;6.20;99.90;;;5.02;100.00;96174.03;10532592;28;1865;-76
2021/10/28 00:47:34;;;;;;;;;;;6.20;99.90;;;5.02;100.00;96181.22;10533660;28;1916;-75
2021/10/28 00:52:37;;;;;;;;;;;6.20;99.90;;;5.02;100.00;96183.88;10535124;28;1895;-75
2021/10/28 00:57:40;;;;;;;;;;;6.20;99.90;;;4.87;100.00;96184.31;10538898;28;1858;-76
2021/10/28 01:02:43;;;;;;;;;;;6.00;99.90;;;4.94;100.00;96173.56;10528707;28;1943;-76
2021/10/28 01:07:46;;;;;;;;;;;6.00;99.90;;;5.01;100.00;96174.25;10535438;28;1901;-76
2021/10/28 01:12:49;;;;;;;;;;;6.10;99.90;;;4.89;100.00;96174.22;10525989;28;1978;-74
2021/10/28 01:17:52;;;;;;;;;;;6.10;99.90;;;4.92;100.00;96167.66;10533759;28;1861;-76
2021/10/28 01:23:15;;;;;;;;;;;6.00;99.90;;;5.14;100.00;96168.72;10565333;28;1871;-75
2021/10/28 01:28:38;;;;;;;;;;;6.10;99.90;;;5.23;100.00;96175.34;10570086;28;1895;-76
2021/10/28 01:33:41;;;;;;;;;;;6.30;99.90;;;5.19;100.00;96158.19;10567603;28;1898;-74
2021/10/28 01:38:44;;;;;;;;;;;6.30;99.90;;;4.94;100.00;96154.91;10561649;28;2004;-77
2021/10/28 01:43:48;;;;;;;;;;;6.10;99.90;;;4.76;100.00;96156.59;10558769;28;1822;-75
2021/10/28 01:48:50;;;;;;;;;;;6.00;99.90;;;4.68;100.00;96146.28;10542236;28;1916;-76
2021/10/28 01:53:53;;;;;;;;;;;5.80;99.90;;;4.77;100.00;96149.41;10542649;28;1922;-75
2021/10/28 01:58:56;;;;;;;;;;;5.90;99.90;;;4.95;100.00;96149.34;10552581;28;1901;-75
2021/10/28 02:04:00;;;;;;;;;;;5.90;99.90;;;4.86;100.00;96154.19;10528162;28;1970;-75
2021/10/28 02:09:03;;;;;;;;;;;6.00;99.90;;;4.96;100.00;96142.97;10534617;28;1901;-76
2021/10/28 02:14:06;;;;;;;;;;;6.00;99.90;;;5.12;100.00;96160.16;10523236;28;1984;-75
2021/10/28 02:19:09;;;;;;;;;;;6.10;99.90;;;5.24;100.00;96165.50;10521822;28;1826;-77
2021/10/28 02:24:12;;;;;;;;;;;6.20;99.90;;;5.31;100.00;96156.34;10521542;28;1937;-76
2021/10/28 02:29:14;;;;;;;;;;;6.30;99.90;;;5.49;100.00;96157.28;10528888;28;1954;-76
2021/10/28 02:34:17;;;;;;;;;;;6.40;99.90;;;5.48;100.00;96161.00;10512666;28;1909;-76
2021/10/28 02:39:20;;;;;;;;;;;6.50;99.90;;;5.50;100.00;96158.91;10523024;28;1868;-75
2021/10/28 02:44:23;;;;;;;;;;;6.50;99.90;;;5.53;100.00;96164.56;10521721;28;1892;-77
2021/10/28 02:49:26;;;;;;;;;;;6.60;99.90;;;5.57;100.00;96160.41;10521970;28;1857;-76
2021/10/28 02:54:29;;;;;;;;;;;6.60;99.90;;;5.63;100.00;96164.81;10522843;28;2008;-76
2021/10/28 02:59:32;;;;;;;;;;;6.60;99.90;;;5.58;100.00;96159.38;10522520;28;2032;-76
2021/10/28 03:04:35;;;;;;;;;;;6.60;99.90;;;5.58;100.00;96158.56;10520973;28;2161;-77
2021/10/28 03:09:38;;;;;;;;;;;6.60;99.90;;;5.68;100.00;96166.78;10530537;28;1861;-75
2021/10/28 03:14:44;;;;;;;;;;;6.70;99.90;;;5.70;100.00;96162.84;10528605;28;1984;-77
2021/10/28 03:19:58;;;;;;;;;;;6.70;99.90;;;5.70;100.00;96164.69;10526328;28;1935;-77
2021/10/28 03:30:27;;;;;;;;;;;6.80;99.90;;;5.86;100.00;96163.19;10504280;28;1942;-76
2021/10/28 03:35:30;;;;;;;;;;;6.80;99.90;;;5.66;100.00;96164.38;10516852;28;1943;-76
2021/10/28 03:40:52;;;;;;;;;;;6.70;99.90;;;5.63;100.00;96158.69;10527271;28;2023;-76
2021/10/28 03:46:25;;;;;;;;;;;6.70;99.90;;;5.62;100.00;96162.38;10520959;28;2029;-75
2021/10/28 04:18:40;;;;;;;;;;;6.50;99.90;;;5.65;100.00;96180.59;10526514;28;1884;-76
2021/10/28 04:29:05;;;;;;;;;;;6.70;99.90;;;5.72;100.00;96165.28;10522194;28;1936;-76
2021/10/28 04:34:08;;;;;;;;;;;6.70;99.90;;;5.67;100.00;96168.66;10524481;28;1985;-76
2021/10/28 04:39:10;;;;;;;;;;;6.70;99.90;;;5.70;100.00;96170.84;10527071;28;1919;-76
2021/10/28 04:44:13;;;;;;;;;;;6.70;99.90;;;5.67;100.00;96174.00;10517549;28;1976;-74
2021/10/28 04:49:16;;;;;;;;;;;6.80;99.90;;;5.58;100.00;96167.38;10523474;28;1917;-76
2021/10/28 04:54:19;;;;;;;;;;;6.70;99.90;;;5.56;100.00;96158.78;10523024;28;2234;-74
2021/10/28 04:59:22;;;;;;;;;;;6.70;99.90;;;5.47;100.00;96160.19;10511271;28;1924;-76
2021/10/28 05:04:25;;;;;;;;;;;6.50;99.90;;;5.33;100.00;96158.78;10536270;28;1956;-76
2021/10/28 05:09:29;;;;;;;;;;;6.40;99.90;;;5.41;100.00;96163.78;10532209;28;1924;-76
2021/10/28 05:14:32;;;;;;;;;;;6.40;99.90;;;5.49;100.00;96160.78;10522440;28;2154;-77
2021/10/28 05:19:38;;;;;;;;;;;6.50;99.90;;;5.43;100.00;96159.84;10531025;28;1925;-76
2021/10/28 05:24:41;;;;;;;;;;;6.50;99.90;;;5.55;100.00;96162.50;10533166;28;1951;-76
2021/10/28 05:29:43;;;;;;;;;;;6.50;99.90;;;5.59;100.00;96166.31;10530695;28;1857;-76
2021/10/28 05:34:48;;;;;;;;;;;6.60;99.90;;;5.67;100.00;96165.19;10527463;28;1977;-75
2021/10/28 05:39:51;;;;;;;;;;;6.70;99.90;;;5.72;100.00;96169.78;10537408;28;1983;-76
2021/10/28 05:44:59;;;;;;;;;;;6.70;99.90;;;5.68;100.00;96167.59;10526902;28;1857;-75
2021/10/28 05:50:02;;;;;;;;;;;6.70;99.90;;;5.68;100.00;96172.13;10521008;28;1913;-76
2021/10/28 05:55:05;;;;;;;;;;;6.60;99.90;;;5.74;100.00;96163.19;10522272;28;1971;-76
2021/10/28 06:00:08;;;;;;;;;;;6.70;99.90;;;5.79;100.00;96167.81;10523670;28;1860;-76
2021/10/28 06:05:11;;;;;;;;;;;6.80;99.90;;;5.75;100.00;96167.47;10528299;28;1981;-75
2021/10/28 06:10:16;;;;;;;;;;;6.80;99.90;;;5.80;100.00;96164.94;10532979;28;2039;-75
2021/10/28 06:15:20;;;;;;;;;;;6.80;99.90;;;5.83;100.00;96167.13;10527455;28;1983;-75
2021/10/28 06:20:23;;;;;;;;;;;6.80;99.90;;;5.91;100.00;96166.78;10524864;28;1896;-74
2021/10/28 06:25:26;;;;;;;;;;;6.90;99.90;;;5.99;100.00;96175.50;10517517;28;1883;-76
2021/10/28 06:30:29;;;;;;;;;;;7.00;99.90;;;6.12;100.00;96175.25;10523698;28;2166;-76
2021/10/28 06:35:32;;;;;;;;;;;7.00;99.90;;;6.24;100.00;96176.03;10527905;28;2052;-75
2021/10/28 06:40:36;;;;;;;;;;;7.20;99.90;;;6.29;100.00;96181.44;10536440;28;1929;-76
2021/10/28 06:45:39;;;;;;;;;;;7.20;99.90;;;6.39;100.00;96172.84;10517959;28;1916;-76
2021/10/28 06:50:47;;;;;;;;;;;7.30;99.90;;;6.50;100.00;96175.47;10525028;28;1934;-75
2021/10/28 06:55:58;;;;;;;;;;;7.40;99.90;;;6.61;100.00;96175.66;10540249;28;1989;-75
2021/10/28 07:06:24;;;;;;;;;;;7.50;99.90;;;6.61;100.00;96178.31;10523136;28;1808;-78
2021/10/28 07:11:30;;;;;;;;;;;7.60;99.90;;;6.72;100.00;96180.97;10534011;28;1941;-74
2021/10/28 07:16:40;;;;;;;;;;;7.60;99.90;;;6.94;100.00;96175.75;10524625;28;1979;-76
2021/10/28 07:32:48;;;;;;;;;;;8.10;99.90;;;7.51;100.00;96159.59;10527559;28;1919;-77
2021/10/28 07:59:47;;;;;;;;;;;8.60;99.90;;;8.09;100.00;96168.16;10523271;28;1914;-77
2021/10/28 08:15:47;;;;;;;;;;;9.10;99.90;;;8.40;100.00;96139.91;10521602;28;1956;-75
2021/10/28 08:21:08;;;;;;;;;;;9.20;99.90;;;7.89;100.00;96149.94;10535677;28;1910;-77
2021/10/28 08:31:32;;;;;;;;;;;9.00;99.90;;;8.47;100.00;96140.53;10542562;28;1905;-76
2021/10/28 08:36:39;;;;;;;;;;;9.30;99.90;;;9.00;95.80;96127.38;10540481;28;1985;-75
2021/10/28 08:41:42;;;;;;;;;;;9.60;99.90;;;8.88;96.20;96122.16;10538522;28;1965;-75
2021/10/28 08:46:46;;;;;;;;;;;9.80;99.90;;;9.13;92.73;96119.72;10539289;28;2322;-74
2021/10/28 08:51:58;;;;;;;;;;;9.90;99.90;;;9.59;93.49;96114.69;10551568;28;1974;-75
2021/10/28 09:23:56;;;;;;;;;;;10.70;99.90;;;9.75;89.27;96107.53;10535455;28;1919;-76
2021/10/28 09:29:01;;;;;;;;;;;10.60;99.90;;;9.06;91.63;96100.34;10539021;28;1846;-76
2021/10/28 09:34:22;;;;;;;;;;;10.40;99.90;;;8.75;93.26;96101.94;10545981;28;1918;-74
2021/10/28 09:45:01;;;;;;;;;;;9.80;99.90;;;8.43;96.16;96091.16;10562567;28;1890;-75
2021/10/28 09:50:10;;;;;;;;;;;9.60;99.90;;;8.50;96.92;96086.41;10539760;28;1930;-76
2021/10/28 10:00:34;;;;;;;;;;;9.60;99.90;;;8.38;98.14;96081.19;10532846;28;1841;-77
2021/10/28 10:05:37;;;;;;;;;;;9.50;99.90;;;8.47;99.13;96076.22;10520078;28;1998;-75
2021/10/28 10:10:40;;;;;;;;;;;9.50;99.90;;;8.19;100.00;96079.09;10526394;28;1867;-77
2021/10/28 10:15:43;;;;;;;;;;;9.40;99.90;;;8.41;99.33;96079.09;10529052;28;1987;-75
2021/10/28 10:20:48;;;;;;;;;;;9.40;99.90;;;8.61;97.55;96065.91;10527364;28;1889;-77
2021/10/28 10:26:01;;;;;;;;;;;9.50;99.90;;;8.54;97.82;96065.31;10515342;28;1929;-76
2021/10/28 11:03:28;;;;;;;;;;;10.30;99.90;;;9.48;91.88;96037.88;10538222;28;1954;-73
2021/10/28 12:23:56;;;;;;;;;;;11.70;99.90;;;10.80;83.46;95951.44;10537416;28;1898;-77
2021/10/28 12:43:27;;;;;;;;;;;11.70;99.90;;;10.89;83.21;95933.69;10545370;28;2079;-75
2021/10/28 12:45:19;;;;;;;;;;;12.00;99.90;;;11.07;84.20;95935.81;10535723;28;1873;-76
2021/10/28 12:50:43;;;;;;;;;;;12.10;99.90;;;11.07;84.30;95924.25;10533450;28;1963;-77
2021/10/28 13:55:18;;;;;;;;;;;12.40;99.90;;;11.29;85.41;95884.34;10527508;27;1973;-76
2021/10/28 14:01:04;;;;;;;;;;;12.40;99.90;;;11.41;83.80;95880.53;10513926;28;1939;-74
2021/10/28 14:28:14;;;;;;;;;;;12.20;99.90;;;10.98;87.77;95878.25;10523793;28;1877;-75
2021/10/28 14:39:12;;;;;;;;;;;12.00;99.90;;;10.82;89.82;95869.44;10523931;28;1909;-76
2021/10/28 15:38:21;;;;;;;;;;;11.20;99.90;;;9.78;100.00;95837.75;10504147;28;1909;-76
2021/10/28 15:47:13;;;;;;;;;;;11.10;99.90;;;9.62;100.00;95843.09;10499962;28;1935;-74
2021/10/28 15:54:55;;;;;;;;;;;10.70;99.90;;;9.33;100.00;95836.56;10511385;28;2181;-75
2021/10/28 16:00:16;;;;;;;;;;;10.50;99.90;;;9.14;100.00;95834.34;10522750;28;1909;-75
2021/10/28 16:26:41;;;;;;;;;;;9.80;99.90;;;8.30;100.00;95837.91;10520895;28;1822;-75
2021/10/28 16:31:43;;;;;;;;;;;9.60;99.90;;;8.07;100.00;95828.34;10528835;28;1322;-75
2021/10/28 16:36:47;;;;;;;;;;;9.40;99.90;;;7.98;100.00;95831.78;10524262;28;1980;-76
2021/10/28 16:41:50;;;;;;;;;;;9.30;99.90;;;7.87;100.00;95830.88;10523696;28;1869;-75
2021/10/28 16:46:53;;;;;;;;;;;9.20;99.90;;;7.69;100.00;95833.91;10523284;28;1522;-75
2021/10/28 16:51:56;;;;;;;;;;;9.00;99.90;;;7.57;100.00;95847.44;10531257;28;1512;-75
2021/10/28 16:56:59;;;;;;;;;;;8.90;99.90;;;7.52;100.00;95839.38;10550328;28;1890;-74
2021/10/28 17:02:02;;;;;;;;;;;8.80;99.90;;;7.40;100.00;95842.22;10563802;28;1295;-75
2021/10/28 17:07:05;;;;;;;;;;;8.70;99.90;;;7.33;100.00;95846.94;10550156;28;1388;-75
2021/10/28 17:12:08;;;;;;;;;;;8.60;99.90;;;7.27;100.00;95855.97;10544169;28;1298;-75
2021/10/28 17:17:11;;;;;;;;;;;8.50;99.90;;;7.17;100.00;95848.63;10561513;28;1894;-75
2021/10/28 17:22:14;;;;;;;;;;;8.40;99.90;;;6.97;100.00;95854.53;10540107;28;1389;-75
2021/10/28 17:27:18;;;;;;;;;;;8.30;99.90;;;6.77;100.00;95856.97;10536125;28;1500;-75
2021/10/28 17:32:22;;;;;;;;;;;8.20;99.90;;;6.65;100.00;95861.59;10530005;28;1313;-74
2021/10/28 17:37:25;;;;;;;;;;;8.00;99.90;;;6.61;100.00;95860.47;10533088;28;1977;-74
2021/10/28 17:42:28;;;;;;;;;;;7.90;99.90;;;6.42;100.00;95852.72;10537180;28;1327;-74
2021/10/28 17:47:31;;;;;;;;;;;7.80;99.90;;;6.33;100.00;95862.22;10531890;28;1416;-75
2021/10/28 17:52:34;;;;;;;;;;;7.70;99.90;;;6.26;100.00;95861.59;10535468;28;1256;-75
2021/10/28 17:57:37;;;;;;;;;;;7.60;99.90;;;6.22;100.00;95869.25;10531600;28;1976;-75
2021/10/28 18:02:39;;;;;;;;;;;7.50;99.90;;;6.10;100.00;95865.06;10528513;28;1387;-75
2021/10/28 18:07:43;;;;;;;;;;;7.40;99.90;;;5.92;100.00;95861.59;10523735;28;1478;-75
2021/10/28 18:12:46;;;;;;;;;;;7.20;99.90;;;5.84;100.00;95861.13;10529731;28;1608;-76
2021/10/28 18:17:49;;;;;;;;;;;7.10;99.90;;;5.62;100.00;95858.38;10532707;28;1979;-75
2021/10/28 18:22:52;;;;;;;;;;;7.00;99.90;;;5.57;100.00;95863.59;10525768;28;1442;-75
2021/10/28 18:27:56;;;;;;;;;;;6.90;99.90;;;5.60;100.00;95860.47;10523849;28;1248;-75
2021/10/28 18:33:00;;;;;;;;;;;6.90;99.90;;;5.52;100.00;95855.50;10529417;28;1372;-74
2021/10/28 18:38:04;;;;;;;;;;;6.80;99.90;;;5.38;100.00;95855.00;10552868;28;1957;-75
2021/10/28 18:43:08;;;;;;;;;;;6.70;99.90;;;5.28;100.00;95849.47;10543351;28;1489;-75
2021/10/28 18:48:11;;;;;;;;;;;6.60;99.90;;;5.15;100.00;95848.72;10533338;28;1289;-74
2021/10/28 18:53:14;;;;;;;;;;;6.50;99.90;;;5.01;100.00;95842.03;10545749;28;1443;-75
2021/10/28 18:58:17;;;;;;;;;;;6.40;99.90;;;4.95;100.00;95842.97;10544812;28;1910;-75
2021/10/28 19:03:20;;;;;;;;;;;6.30;99.90;;;4.85;100.00;95840.94;10550855;28;1412;-74
2021/10/28 19:08:25;;;;;;;;;;;6.20;99.90;;;4.81;100.00;95846.97;10519715;28;1733;-74
2021/10/28 19:13:28;;;;;;;;;;;6.10;99.90;;;4.70;100.00;95845.94;10533768;28;1921;-75
2021/10/28 19:18:51;;;;;;;;;;;6.10;99.90;;;4.70;100.00;95840.59;10528834;28;1973;-76
2021/10/28 19:24:14;;;;;;;;;;;6.00;99.90;;;4.58;100.00;95835.34;10524621;28;1813;-76
2021/10/28 19:29:42;;;;;;;;;;;5.90;99.90;;;4.58;100.00;95834.50;10522531;28;1952;-75
2021/10/28 19:34:46;;;;;;;;;;;5.90;99.90;;;4.53;100.00;95835.22;10524682;28;1811;-76
2021/10/28 19:40:14;;;;;;;;;;;5.80;99.90;;;4.52;100.00;95832.78;10521514;28;1961;-74
2021/10/28 19:45:27;;;;;;;;;;;5.80;99.90;;;4.60;100.00;95835.09;10523614;28;1880;-74
2021/10/28 19:50:30;;;;;;;;;;;5.70;99.90;;;4.64;100.00;95833.56;10521402;28;1859;-75
2021/10/28 19:55:33;;;;;;;;;;;5.80;99.90;;;4.55;100.00;95832.31;10522225;28;1869;-74
2021/10/28 20:00:38;;;;;;;;;;;5.80;99.90;;;4.50;100.00;95829.53;10530611;28;1967;-75
2021/10/28 20:05:48;;;;;;;;;;;5.80;99.90;;;4.36;100.00;95830.84;10517807;28;1990;-75
2021/10/28 20:21:32;;;;;;;;;;;5.40;99.90;;;4.12;100.00;95832.69;10526573;28;1939;-74
2021/10/28 20:26:35;;;;;;;;;;;5.40;99.90;;;3.97;100.00;95825.16;10521951;28;2014;-75
2021/10/28 20:31:37;;;;;;;;;;;5.30;99.90;;;4.04;100.00;95823.22;10529694;28;1869;-74
2021/10/28 20:42:01;;;;;;;;;;;5.30;99.90;;;4.04;100.00;95813.38;10545143;27;2260;-74
2021/10/28 20:47:04;;;;;;;;;;;5.30;99.90;;;4.22;100.00;95811.63;10568582;28;2209;-74
2021/10/28 20:52:07;;;;;;;;;;;5.40;99.90;;;4.19;100.00;95807.56;10577110;28;1815;-74
2021/10/28 20:57:10;;;;;;;;;;;5.40;99.90;;;4.11;100.00;95802.63;10561735;28;1916;-74
2021/10/28 21:02:13;;;;;;;;;;;5.30;99.90;;;4.06;100.00;95803.31;10554332;28;1873;-74
2021/10/28 21:07:17;;;;;;;;;;;5.30;99.90;;;3.94;100.00;95799.03;10529783;28;1924;-74
2021/10/28 21:12:19;;;;;;;;;;;5.20;99.90;;;3.98;100.00;95797.53;10531658;28;1897;-74
2021/10/28 21:17:22;;;;;;;;;;;5.20;99.90;;;3.97;100.00;95796.72;10530574;28;1932;-74
2021/10/28 21:22:25;;;;;;;;;;;5.20;99.90;;;3.82;100.00;95799.03;10528666;28;2016;-74
2021/10/28 21:27:28;;;;;;;;;;;5.10;99.90;;;3.66;100.00;95791.72;10567606;28;1790;-74
2021/10/28 21:32:31;;;;;;;;;;;4.90;99.90;;;3.60;100.00;95788.13;10566356;28;1953;-73
2021/10/28 21:37:35;;;;;;;;;;;4.80;99.90;;;3.88;100.00;95773.34;10549271;28;1910;-75
2021/10/28 21:42:38;;;;;;;;;;;4.80;99.90;;;3.63;100.00;95774.41;10533682;28;1963;-74
2021/10/28 21:47:43;;;;;;;;;;;4.90;99.90;;;3.35;100.00;95767.06;10527193;28;1869;-73
2021/10/28 21:52:49;;;;;;;;;;;4.60;99.90;;;3.47;100.00;95767.09;10521839;28;1897;-74
2021/10/28 21:57:55;;;;;;;;;;;4.60;99.90;;;3.56;100.00;95757.72;10532258;28;1910;-73
2021/10/28 22:03:21;;;;;;;;;;;4.60;99.90;;;3.65;100.00;95761.69;10524801;28;2384;-74
2021/10/28 22:24:34;;;;;;;;;;;4.80;99.90;;;3.29;100.00;95745.91;10534674;28;2510;-74
2021/10/28 22:29:37;;;;;;;;;;;4.60;99.90;;;3.21;100.00;95739.91;10546132;28;2198;-74
2021/10/28 22:34:42;;;;;;;;;;;4.50;99.90;;;3.40;100.00;95735.31;10537446;28;1834;-74
2021/10/28 22:39:55;;;;;;;;;;;4.50;99.90;;;3.37;100.00;95726.97;10530166;28;2054;-74
2021/10/28 22:44:58;;;;;;;;;;;4.50;99.90;;;3.54;100.00;95719.94;10524072;28;2047;-74
2021/10/28 22:50:04;;;;;;;;;;;4.60;99.90;;;3.42;100.00;95722.59;10520359;28;1934;-74
2021/10/28 22:55:08;;;;;;;;;;;4.60;99.90;;;3.35;100.00;95711.25;10526223;28;1897;-72
2021/10/28 23:00:16;;;;;;;;;;;4.50;99.90;;;3.19;100.00;95718.06;10532706;28;1927;-73
2021/10/28 23:10:51;;;;;;;;;;;4.40;99.90;;;3.09;100.00;95707.19;10516536;28;2019;-73
2021/10/28 23:16:14;;;;;;;;;;;4.30;99.90;;;2.98;100.00;95698.16;10528477;28;1909;-74
2021/10/28 23:21:17;;;;;;;;;;;4.30;99.90;;;3.06;100.00;95702.34;10524401;28;2413;-74
2021/10/28 23:26:20;;;;;;;;;;;4.30;99.90;;;3.11;100.00;95686.50;10525677;28;1983;-74
2021/10/28 23:31:23;;;;;;;;;;;4.40;99.90;;;2.90;100.00;95692.38;10526435;28;2110;-74
2021/10/28 23:36:26;;;;;;;;;;;4.20;99.90;;;2.85;100.00;95687.72;10525271;28;1865;-73
2021/10/28 23:41:30;;;;;;;;;;;4.00;99.90;;;2.93;100.00;95676.81;10526624;28;1982;-74
2021/10/28 23:46:33;;;;;;;;;;;4.00;99.90;;;2.98;100.00;95674.25;10523218;28;2118;-73
2021/10/28 23:51:36;;;;;;;;;;;4.00;99.90;;;2.92;100.00;95669.84;10524030;28;1847;-74
2021/10/28 23:56:39;;;;;;;;;;;4.00;99.90;;;2.84;100.00;95656.91;10523963;28;2007;-73
